Doyon, North Dakota
Current Conditions -  °F | °C
As of 5:35 AM on Wednesday 26 Nov 2014 (Local Time) from KDVL Reporting Station
Overcast Overcast  
Wind Chill: -16°   Ceiling: 11000
Heat Index:   Visibility: 10mi
Dew Point: -11°   Wind: 9mph
Humidity: 60%   Direction: 10°N
Pressure: 30.28"   Gusts: NA
Location:  48.0187°N, 98.6029°W
Report Text: KDVL 261135Z AUTO 01008KT 10SM OVC110 M18/M24 A3028 RMK AO1
Loading
Personal Weather Stations






























Interactive Weather Map New forecast layout! Learn more

10-Day Weather Forecast

Advertisements
Track Severe Weather on mobile